Portada
METAR-TAF:

METAR-TAF

Aeroports :

Bamako, Mali

latitud: 12-32N, longitud: 007-57W, altitud: 380 m

Observació

L'informe es va fer fa 36 minuts, a les 13:30 UTC
Vent 4 kt del Nord/Nord-Oest, variant entre Oest i Nord
Temperatura 27°C
Humitat 74%
Pressió 1014 hPa
Visibilitat 10 km o més
Núvols disperses a una alçada de 2000 ft

METAR: GABS 191330Z 33004KT 270V360 9999 SCT020 27/22 Q1014 NOSIG

Hora: 14:06 (14:06 UTC)

Pronòstic

L'informe es va fer fa 3 hores i 6 minuts, a les 11:00 UTC
Pronòstic vàlid del 19 a les 12 UTC al 20 a les 18 UTC
Vent 8 kt del Sud
Visibilitat 10 km o més
Núvols disperses a una alçada de 2000 ft
Probabilitat 40% :
Temporalment
l' 19 a les 14 UTC al 19 a les 20 UTC
Vent 15 kt amb direcció variable
Visibilitat: 4500 m
Núvols disperses a una alçada de 2000 ft
Escasses núvols a una alçada de 2600 ft, Cumulonimbus.
tempesta, xàfecs de pluja

TAF: GABS 191100Z 1912/2018 18008KT 9999 SCT020 PROB40 TEMPO 1914/1920 VRB15KT 4500 TS SHRA SCT020 FEW026CB

Observacions i pronòstics meteorològics de més de 4000 aeroports (METAR i TAF).

Les estacions disponibles són els punts grocs i vermells al mapa.

Posi el ratolí al punt desitjat per veure el nom de l'estació.

Feu clic per veure les observacions i els pronòstics meteorològics.

Per canviar el mapa: feu clic els botons verds amb una creu de color negre per apropar; al botó verd amb un guió per allunyar la imatge; o en les fletxes verdes per a mapes adjacents.


METAR-TAF: